createdAt,value
2018-08-18T00:00:30.542Z,19.50
2018-08-18T00:03:00.162Z,19.50
2018-08-18T00:05:29.957Z,19.40
2018-08-18T00:08:00.188Z,19.50
2018-08-18T00:10:29.798Z,19.50
2018-08-18T00:12:59.484Z,19.40
2018-08-18T00:15:29.172Z,19.30
2018-08-18T00:17:58.816Z,19.30
2018-08-18T00:20:28.599Z,19.20
2018-08-18T00:22:58.226Z,19.20
2018-08-18T00:25:28.048Z,19.10
2018-08-18T00:28:01.282Z,18.90
2018-08-18T00:30:31.043Z,18.80
2018-08-18T00:33:00.751Z,18.80
2018-08-18T00:35:30.575Z,18.80
2018-08-18T00:38:00.271Z,18.80
2018-08-18T00:40:30.133Z,18.80
2018-08-18T00:42:59.894Z,18.80
2018-08-18T00:45:29.610Z,18.80
2018-08-18T00:47:59.073Z,18.80
2018-08-18T00:50:42.950Z,18.90
2018-08-18T00:53:14.921Z,19.00
2018-08-18T00:55:44.657Z,19.00
2018-08-18T00:58:19.622Z,19.00
2018-08-18T01:00:54.273Z,19.00
2018-08-18T01:03:23.860Z,19.00
2018-08-18T01:05:53.516Z,19.00
2018-08-18T01:08:23.142Z,19.00
2018-08-18T01:10:53.053Z,19.00
2018-08-18T01:13:22.618Z,19.00
2018-08-18T01:15:52.404Z,19.00
2018-08-18T01:18:22.036Z,19.10
2018-08-18T01:20:51.657Z,19.20
2018-08-18T01:23:21.153Z,19.20
2018-08-18T01:25:51.146Z,19.20
2018-08-18T01:28:20.750Z,19.30
2018-08-18T01:31:05.963Z,19.30
2018-08-18T01:33:37.729Z,19.40
2018-08-18T01:36:07.656Z,19.40
2018-08-18T01:38:38.325Z,19.40
2018-08-18T01:41:24.851Z,19.50
2018-08-18T01:44:18.884Z,19.60
2018-08-18T01:46:50.208Z,19.50
2018-08-18T01:49:36.103Z,19.40
2018-08-18T01:52:13.866Z,19.40
2018-08-18T01:54:44.954Z,19.30
2018-08-18T01:57:15.464Z,19.20
2018-08-18T01:59:46.234Z,19.10
2018-08-18T02:02:22.213Z,19.00
2018-08-18T02:04:55.983Z,19.00
2018-08-18T02:07:30.113Z,19.00
2018-08-18T02:09:59.835Z,18.90
2018-08-18T02:12:29.814Z,18.90
2018-08-18T02:15:00.287Z,18.90
2018-08-18T02:17:32.942Z,18.90
2018-08-18T02:20:02.811Z,19.00
2018-08-18T02:22:33.058Z,19.00
2018-08-18T02:25:02.788Z,19.00
2018-08-18T02:27:32.477Z,19.00
2018-08-18T02:30:18.990Z,18.90
2018-08-18T02:32:48.564Z,18.90
2018-08-18T02:35:18.411Z,18.90
2018-08-18T02:37:48.173Z,18.90
2018-08-18T02:40:18.826Z,18.80
2018-08-18T02:42:48.344Z,18.70
2018-08-18T02:45:18.174Z,18.60
2018-08-18T02:47:47.985Z,18.50
2018-08-18T02:50:17.669Z,18.40
2018-08-18T02:52:48.062Z,18.40
2018-08-18T02:55:17.486Z,18.30
2018-08-18T02:57:47.281Z,18.20
2018-08-18T03:00:24.861Z,18.20
2018-08-18T03:02:54.437Z,18.00
2018-08-18T03:05:24.216Z,17.90
2018-08-18T03:07:54.014Z,17.80
2018-08-18T03:10:25.505Z,17.80
2018-08-18T03:13:01.013Z,17.70
2018-08-18T03:16:07.269Z,17.70
2018-08-18T03:18:42.236Z,17.60
2018-08-18T03:21:11.924Z,17.40
2018-08-18T03:23:58.719Z,17.40
2018-08-18T03:26:33.388Z,17.30
2018-08-18T03:29:03.583Z,17.20
2018-08-18T03:31:33.234Z,17.20
2018-08-18T03:34:03.447Z,17.10
2018-08-18T03:36:36.386Z,17.00
2018-08-18T03:39:13.143Z,17.00
2018-08-18T03:41:43.160Z,16.90
2018-08-18T03:44:12.937Z,16.90
2018-08-18T03:46:42.508Z,16.80
2018-08-18T03:49:12.537Z,16.80
2018-08-18T03:51:58.765Z,16.80
2018-08-18T03:54:28.504Z,16.70
2018-08-18T03:56:58.167Z,16.60
2018-08-18T03:59:27.974Z,16.60
2018-08-18T04:01:58.674Z,16.60
2018-08-18T04:04:30.385Z,16.60
2018-08-18T04:07:00.957Z,16.50
2018-08-18T04:09:31.782Z,16.40
2018-08-18T04:12:03.422Z,16.50
2018-08-18T04:14:37.632Z,16.40
2018-08-18T04:17:39.770Z,16.30
2018-08-18T04:20:09.589Z,16.30
2018-08-18T04:22:39.343Z,16.20
2018-08-18T04:25:09.227Z,16.20
2018-08-18T04:27:47.405Z,16.20
2018-08-18T04:30:20.926Z,16.20
2018-08-18T04:33:01.610Z,16.20
2018-08-18T04:35:32.067Z,16.10
2018-08-18T04:38:04.218Z,16.10
2018-08-18T04:40:36.021Z,16.10
2018-08-18T04:43:05.559Z,16.10
2018-08-18T04:45:35.278Z,16.20
2018-08-18T04:48:05.058Z,16.20
2018-08-18T04:50:34.774Z,16.30
2018-08-18T04:53:04.423Z,16.30
2018-08-18T04:55:33.910Z,16.40
2018-08-18T04:58:03.593Z,16.40
2018-08-18T05:00:33.294Z,16.50
2018-08-18T05:03:02.943Z,16.50
2018-08-18T05:05:33.083Z,16.70
2018-08-18T05:08:02.741Z,16.80
2018-08-18T05:10:32.322Z,16.90
2018-08-18T05:13:02.277Z,17.10
2018-08-18T05:15:31.809Z,17.20
2018-08-18T05:18:01.312Z,17.40
2018-08-18T05:20:30.908Z,17.50
2018-08-18T05:23:18.988Z,17.80
2018-08-18T05:25:50.504Z,17.90
2018-08-18T05:28:20.445Z,18.10
2018-08-18T05:30:53.198Z,18.10
2018-08-18T05:33:22.768Z,18.20
2018-08-18T05:35:52.436Z,18.40
2018-08-18T05:38:22.219Z,18.60
2018-08-18T05:40:51.912Z,18.70
2018-08-18T05:43:21.734Z,18.80
2018-08-18T05:45:51.300Z,19.00
2018-08-18T05:48:20.933Z,19.10
2018-08-18T05:50:50.553Z,19.20
2018-08-18T05:53:24.393Z,19.30
2018-08-18T05:55:54.349Z,19.40
2018-08-18T05:58:24.206Z,19.50
2018-08-18T06:00:57.046Z,19.80
2018-08-18T06:03:35.603Z,19.90
2018-08-18T06:06:05.347Z,20.00
2018-08-18T06:08:35.067Z,20.00
2018-08-18T06:11:04.711Z,20.30
2018-08-18T06:13:34.327Z,20.40
2018-08-18T06:16:11.804Z,20.70
2018-08-18T06:18:41.863Z,20.90
2018-08-18T06:21:11.644Z,21.10
2018-08-18T06:23:41.269Z,21.40
2018-08-18T06:26:10.914Z,21.60
2018-08-18T06:28:40.705Z,21.90
2018-08-18T06:31:10.540Z,22.30
2018-08-18T06:33:40.219Z,22.60
2018-08-18T06:36:09.837Z,22.80
2018-08-18T06:38:39.533Z,22.80
2018-08-18T06:41:09.218Z,22.50
2018-08-18T06:43:39.730Z,22.40
2018-08-18T06:46:09.714Z,22.40
2018-08-18T06:48:40.999Z,22.30
2018-08-18T06:51:10.732Z,22.50
2018-08-18T06:53:45.504Z,22.20
2018-08-18T06:56:15.174Z,22.50
2018-08-18T06:58:44.987Z,23.00
2018-08-18T07:01:14.592Z,23.00
2018-08-18T07:03:46.041Z,23.50
2018-08-18T07:06:17.355Z,24.10
2018-08-18T07:08:52.964Z,24.90
2018-08-18T07:11:22.641Z,25.90
2018-08-18T07:13:52.354Z,26.60
2018-08-18T07:16:22.075Z,26.80
2018-08-18T07:18:51.887Z,26.80
2018-08-18T07:21:21.541Z,26.90
2018-08-18T07:23:51.102Z,27.00
2018-08-18T07:26:21.029Z,26.90
2018-08-18T07:28:51.581Z,27.00
2018-08-18T07:31:21.051Z,27.30
2018-08-18T07:33:59.952Z,27.70
2018-08-18T07:36:29.523Z,28.50
2018-08-18T07:38:59.243Z,29.20
2018-08-18T07:41:28.832Z,29.20
2018-08-18T07:43:58.875Z,30.10
2018-08-18T07:46:28.529Z,30.00
2018-08-18T07:48:58.035Z,31.80
2018-08-18T07:51:27.978Z,33.30
2018-08-18T07:53:57.678Z,34.20
2018-08-18T07:56:27.376Z,35.40
2018-08-18T07:58:57.077Z,35.60
2018-08-18T08:01:26.693Z,35.60
2018-08-18T08:03:56.297Z,36.20
2018-08-18T08:06:25.838Z,36.80
2018-08-18T08:08:56.220Z,37.00
2018-08-18T08:11:26.510Z,36.60
2018-08-18T08:13:56.159Z,36.80
2018-08-18T08:16:25.792Z,36.90
2018-08-18T08:18:55.411Z,36.60
2018-08-18T08:21:25.092Z,37.90
2018-08-18T08:23:55.993Z,37.40
2018-08-18T08:26:25.510Z,37.20
2018-08-18T08:28:55.033Z,37.40
2018-08-18T08:31:24.655Z,38.30
2018-08-18T08:33:54.355Z,39.30
2018-08-18T08:36:24.112Z,39.50
2018-08-18T08:38:58.795Z,39.80
2018-08-18T08:41:33.085Z,39.00
2018-08-18T08:44:03.659Z,38.80
2018-08-18T08:46:33.366Z,39.40
2018-08-18T08:49:02.906Z,40.20
2018-08-18T08:51:32.580Z,40.70
2018-08-18T08:54:02.072Z,41.00
2018-08-18T08:56:36.940Z,40.60
2018-08-18T08:59:06.519Z,41.30
2018-08-18T09:01:36.257Z,41.00
2018-08-18T09:04:05.947Z,42.10
2018-08-18T09:06:41.243Z,41.90
2018-08-18T09:09:10.962Z,41.40
2018-08-18T09:11:40.710Z,41.20
2018-08-18T09:14:10.309Z,41.30
2018-08-18T09:16:39.977Z,41.90
2018-08-18T09:19:09.826Z,41.70
2018-08-18T09:21:44.800Z,42.20
2018-08-18T09:24:14.593Z,42.30
2018-08-18T09:26:49.353Z,40.50
2018-08-18T09:29:19.011Z,40.80
2018-08-18T09:31:48.952Z,39.90
2018-08-18T09:34:18.626Z,40.30
2018-08-18T09:36:48.763Z,40.60
2018-08-18T09:39:28.309Z,39.90
2018-08-18T09:41:57.894Z,39.30
2018-08-18T09:44:29.455Z,39.10
2018-08-18T09:46:59.493Z,38.20
2018-08-18T09:49:30.540Z,39.20
2018-08-18T09:52:00.954Z,39.70
2018-08-18T09:54:30.677Z,40.50
2018-08-18T09:57:00.364Z,40.80
2018-08-18T09:59:30.502Z,41.30
2018-08-18T10:02:00.293Z,41.40
2018-08-18T10:04:30.004Z,42.10
2018-08-18T10:06:59.923Z,42.30
2018-08-18T10:09:29.827Z,42.10
2018-08-18T10:12:00.785Z,41.90
2018-08-18T10:14:30.362Z,42.30
2018-08-18T10:17:00.179Z,42.00
2018-08-18T10:19:31.303Z,41.50
2018-08-18T10:22:01.877Z,40.80
2018-08-18T10:24:31.581Z,40.10
2018-08-18T10:27:06.289Z,40.00
2018-08-18T10:29:36.025Z,39.80
2018-08-18T10:32:06.325Z,39.70
2018-08-18T10:34:36.014Z,40.00
2018-08-18T10:37:07.415Z,40.70
2018-08-18T10:39:38.360Z,41.40
2018-08-18T10:42:14.619Z,40.70
2018-08-18T10:44:50.919Z,40.50
2018-08-18T10:47:21.924Z,39.40
2018-08-18T10:50:08.524Z,39.40
2018-08-18T10:52:55.012Z,39.10
2018-08-18T10:55:24.666Z,38.50
2018-08-18T10:58:09.504Z,39.20
2018-08-18T11:00:39.302Z,38.60
2018-08-18T11:03:09.314Z,38.10
2018-08-18T11:05:38.885Z,38.10
2018-08-18T11:08:09.266Z,38.00
2018-08-18T11:10:40.906Z,38.90
2018-08-18T11:13:10.833Z,39.00
2018-08-18T11:15:40.443Z,39.60
2018-08-18T11:18:10.258Z,39.20
2018-08-18T11:20:40.058Z,39.00
2018-08-18T11:23:11.705Z,39.10
2018-08-18T11:25:50.310Z,38.70
2018-08-18T11:28:20.784Z,39.50
2018-08-18T11:30:52.513Z,39.70
2018-08-18T11:33:43.078Z,40.00
2018-08-18T11:36:13.258Z,40.30
2018-08-18T11:38:42.915Z,39.50
2018-08-18T11:41:12.616Z,37.60
2018-08-18T11:43:50.459Z,35.80
2018-08-18T11:46:21.096Z,33.30
2018-08-18T11:48:50.668Z,32.40
2018-08-18T11:51:20.411Z,31.90
2018-08-18T11:53:59.855Z,31.60
2018-08-18T11:56:29.645Z,31.10
2018-08-18T11:59:09.921Z,30.30
2018-08-18T12:01:41.341Z,30.20
2018-08-18T12:04:11.400Z,30.30
2018-08-18T12:06:48.057Z,30.50
2018-08-18T12:09:18.097Z,30.20
2018-08-18T12:11:50.097Z,29.90
2018-08-18T12:14:19.891Z,30.10
2018-08-18T12:16:49.684Z,30.00
2018-08-18T12:19:19.299Z,29.90
2018-08-18T12:21:49.088Z,29.90
2018-08-18T12:24:20.977Z,30.00
2018-08-18T12:27:09.446Z,29.80
2018-08-18T12:29:39.154Z,29.80
2018-08-18T12:32:18.425Z,29.70
2018-08-18T12:34:48.976Z,29.70
2018-08-18T12:37:18.688Z,29.50
2018-08-18T12:39:48.501Z,29.20
2018-08-18T12:42:23.135Z,29.20
2018-08-18T12:44:52.819Z,29.10
2018-08-18T12:47:22.462Z,29.30
2018-08-18T12:49:53.179Z,29.30
2018-08-18T12:52:22.804Z,29.30
2018-08-18T12:54:52.355Z,29.30
2018-08-18T12:57:38.937Z,29.10
2018-08-18T13:00:08.733Z,29.30
2018-08-18T13:02:46.694Z,29.20
2018-08-18T13:05:17.044Z,29.40
2018-08-18T13:07:46.650Z,29.50
2018-08-18T13:10:29.323Z,29.30
2018-08-18T13:12:59.110Z,29.10
2018-08-18T13:15:28.754Z,29.10
2018-08-18T13:17:58.560Z,29.00
2018-08-18T13:20:28.247Z,29.00
2018-08-18T13:22:57.889Z,29.20
2018-08-18T13:25:28.485Z,29.40
2018-08-18T13:27:58.492Z,29.50
2018-08-18T13:30:28.793Z,29.40
2018-08-18T13:32:59.414Z,29.30
2018-08-18T13:35:28.925Z,29.40
2018-08-18T13:37:58.641Z,29.50
2018-08-18T13:40:29.600Z,29.50
2018-08-18T13:42:59.376Z,29.50
2018-08-18T13:45:43.601Z,29.60
2018-08-18T13:48:13.659Z,29.80
2018-08-18T13:50:43.404Z,29.60
2018-08-18T13:53:13.091Z,29.60
2018-08-18T13:55:42.778Z,29.70
2018-08-18T13:58:13.018Z,29.70
2018-08-18T14:00:42.594Z,29.90
2018-08-18T14:03:29.102Z,29.90
2018-08-18T14:05:58.918Z,29.70
2018-08-18T14:08:28.534Z,29.90
2018-08-18T14:10:58.179Z,30.00
2018-08-18T14:13:29.118Z,29.90
2018-08-18T14:15:59.180Z,29.60
2018-08-18T14:18:28.879Z,29.50
2018-08-18T14:21:05.417Z,29.60
2018-08-18T14:23:35.203Z,29.80
2018-08-18T14:26:04.880Z,29.60
2018-08-18T14:28:34.782Z,29.60
2018-08-18T14:31:05.079Z,29.50
2018-08-18T14:33:34.590Z,29.60
2018-08-18T14:36:09.342Z,29.80
2018-08-18T14:38:39.177Z,29.90
2018-08-18T14:41:08.760Z,30.00
2018-08-18T14:43:40.495Z,30.00
2018-08-18T14:46:14.535Z,29.80
2018-08-18T14:48:44.134Z,29.40
2018-08-18T14:51:13.796Z,29.30
2018-08-18T14:53:43.661Z,29.30
2018-08-18T14:56:13.403Z,29.40
2018-08-18T14:58:44.600Z,29.60
2018-08-18T15:01:15.295Z,29.70
2018-08-18T15:03:45.001Z,29.60
2018-08-18T15:06:14.695Z,29.50
2018-08-18T15:08:44.522Z,29.50
2018-08-18T15:11:14.638Z,29.60
2018-08-18T15:13:44.324Z,29.40
2018-08-18T15:16:13.942Z,29.30
2018-08-18T15:18:43.759Z,29.10
2018-08-18T15:21:13.475Z,29.00
2018-08-18T15:23:43.152Z,29.10
2018-08-18T15:26:12.887Z,29.10
2018-08-18T15:28:42.601Z,29.30
2018-08-18T15:31:12.176Z,29.40
2018-08-18T15:33:41.941Z,29.50
2018-08-18T15:36:28.326Z,29.30
2018-08-18T15:38:58.039Z,29.30
2018-08-18T15:41:34.443Z,29.30
2018-08-18T15:44:08.834Z,29.20
2018-08-18T15:46:38.493Z,29.20
2018-08-18T15:49:08.139Z,28.90
2018-08-18T15:51:37.838Z,29.00
2018-08-18T15:54:07.849Z,29.10
2018-08-18T15:56:37.370Z,29.10
2018-08-18T15:59:07.123Z,28.80
2018-08-18T16:01:36.741Z,28.80
2018-08-18T16:04:06.408Z,28.90
2018-08-18T16:06:36.569Z,29.00
2018-08-18T16:09:09.240Z,29.10
2018-08-18T16:11:38.930Z,29.00
2018-08-18T16:14:09.429Z,29.00
2018-08-18T16:16:56.832Z,28.90
2018-08-18T16:19:26.934Z,29.00
2018-08-18T16:21:57.307Z,28.90
2018-08-18T16:24:36.337Z,28.80
2018-08-18T16:27:07.154Z,28.50
2018-08-18T16:29:37.710Z,28.40
2018-08-18T16:32:21.228Z,28.40
2018-08-18T16:35:00.520Z,28.30
2018-08-18T16:37:31.068Z,28.10
2018-08-18T16:40:00.763Z,28.00
2018-08-18T16:42:33.234Z,27.90
2018-08-18T16:45:02.754Z,27.70
2018-08-18T16:47:37.922Z,27.50
2018-08-18T16:50:07.625Z,27.30
2018-08-18T16:52:37.231Z,27.20
2018-08-18T16:55:06.887Z,27.10
2018-08-18T16:57:36.557Z,27.00
2018-08-18T17:00:06.355Z,26.90
2018-08-18T17:02:39.014Z,26.70
2018-08-18T17:05:09.820Z,26.60
2018-08-18T17:07:44.200Z,26.40
2018-08-18T17:10:13.861Z,26.20
2018-08-18T17:12:43.716Z,25.90
2018-08-18T17:15:16.214Z,25.60
2018-08-18T17:17:46.122Z,25.40
2018-08-18T17:20:15.857Z,25.20
2018-08-18T17:22:46.192Z,24.90
2018-08-18T17:25:15.885Z,24.70
2018-08-18T17:27:45.532Z,24.50
2018-08-18T17:30:15.318Z,24.20
2018-08-18T17:32:44.807Z,24.00
2018-08-18T17:35:14.396Z,23.90
2018-08-18T17:37:44.005Z,23.80
2018-08-18T17:40:13.801Z,23.60
2018-08-18T17:42:43.456Z,23.30
2018-08-18T17:45:13.369Z,23.00
2018-08-18T17:47:51.000Z,22.70
2018-08-18T17:50:25.022Z,22.50
2018-08-18T17:52:54.603Z,22.40
2018-08-18T17:55:24.536Z,22.30
2018-08-18T17:57:54.262Z,22.20
2018-08-18T18:00:24.480Z,22.10
2018-08-18T18:03:00.644Z,22.00
2018-08-18T18:05:34.222Z,22.00
2018-08-18T18:08:05.004Z,22.00
2018-08-18T18:10:36.783Z,21.90
2018-08-18T18:13:29.572Z,21.90
2018-08-18T18:15:59.339Z,21.80
2018-08-18T18:18:36.452Z,21.80
2018-08-18T18:21:06.127Z,21.70
2018-08-18T18:23:35.807Z,21.60
2018-08-18T18:26:05.458Z,21.60
2018-08-18T18:28:35.233Z,21.50
2018-08-18T18:31:04.868Z,21.40
2018-08-18T18:33:34.625Z,21.30
2018-08-18T18:36:04.460Z,21.20
2018-08-18T18:38:53.031Z,21.20
2018-08-18T18:41:22.926Z,21.10
2018-08-18T18:44:01.166Z,21.00
2018-08-18T18:46:30.960Z,20.90
2018-08-18T18:49:01.320Z,20.70
2018-08-18T18:51:30.977Z,20.70
2018-08-18T18:54:00.700Z,20.60
2018-08-18T18:56:30.543Z,20.40
2018-08-18T18:59:00.197Z,20.30
2018-08-18T19:01:29.869Z,20.30
2018-08-18T19:03:59.487Z,20.20
2018-08-18T19:06:29.232Z,20.10
2018-08-18T19:09:01.482Z,19.90
2018-08-18T19:11:31.047Z,19.80
2018-08-18T19:14:00.631Z,19.70
2018-08-18T19:16:30.365Z,19.60
2018-08-18T19:19:00.716Z,19.50
2018-08-18T19:21:34.176Z,19.40
2018-08-18T19:24:15.116Z,19.40
2018-08-18T19:27:55.073Z,19.30
2018-08-18T19:30:24.725Z,19.20
2018-08-18T19:32:54.277Z,19.20
2018-08-18T19:35:29.346Z,19.10
2018-08-18T19:37:59.248Z,19.10
2018-08-18T19:40:29.119Z,19.00
2018-08-18T19:42:58.798Z,19.00
2018-08-18T19:45:28.460Z,19.00
2018-08-18T19:47:58.205Z,18.90
2018-08-18T19:50:28.022Z,18.90
2018-08-18T19:53:02.661Z,18.80
2018-08-18T19:55:32.425Z,18.80
2018-08-18T19:58:02.184Z,18.80
2018-08-18T20:00:31.907Z,18.70
2018-08-18T20:03:06.291Z,18.70
2018-08-18T20:05:36.882Z,18.70
2018-08-18T20:08:06.853Z,18.60
2018-08-18T20:10:44.727Z,18.50
2018-08-18T20:13:15.540Z,18.50
2018-08-18T20:15:50.239Z,18.50
2018-08-18T20:18:19.923Z,18.40
2018-08-18T20:20:49.735Z,18.30
2018-08-18T20:23:20.900Z,18.40
2018-08-18T20:25:51.179Z,18.50
2018-08-18T20:28:21.549Z,18.50
2018-08-18T20:30:51.149Z,18.50
2018-08-18T20:33:21.013Z,18.50
2018-08-18T20:35:50.761Z,18.50
2018-08-18T20:38:20.571Z,18.50
2018-08-18T20:40:50.251Z,18.50
2018-08-18T20:43:20.040Z,18.60
2018-08-18T20:45:50.652Z,18.30
2018-08-18T20:48:22.827Z,18.30
2018-08-18T20:50:52.684Z,18.20
2018-08-18T20:53:22.333Z,18.10
2018-08-18T20:55:56.458Z,18.10
2018-08-18T20:58:26.455Z,18.10
2018-08-18T21:00:56.062Z,18.20
2018-08-18T21:03:42.378Z,18.10
2018-08-18T21:06:12.447Z,18.00
2018-08-18T21:08:42.288Z,18.10
2018-08-18T21:11:11.943Z,18.10
2018-08-18T21:13:41.686Z,18.00
2018-08-18T21:16:12.300Z,18.00
2018-08-18T21:18:41.817Z,18.00
2018-08-18T21:21:34.213Z,18.10
2018-08-18T21:24:04.185Z,18.00
2018-08-18T21:26:34.029Z,18.10
2018-08-18T21:29:03.808Z,18.10
2018-08-18T21:31:34.639Z,18.00
2018-08-18T21:34:05.575Z,18.00
2018-08-18T21:36:35.582Z,18.00
2018-08-18T21:39:08.741Z,18.00
2018-08-18T21:41:41.269Z,18.00
2018-08-18T21:44:12.904Z,18.00
2018-08-18T21:46:42.978Z,18.00
2018-08-18T21:49:13.423Z,18.00
2018-08-18T21:51:42.904Z,18.00
2018-08-18T21:54:12.603Z,18.00
2018-08-18T21:56:43.286Z,18.00
2018-08-18T21:59:14.130Z,18.00
2018-08-18T22:01:44.061Z,18.00
2018-08-18T22:04:13.908Z,18.00
2018-08-18T22:06:43.668Z,18.00
2018-08-18T22:09:24.980Z,18.00
2018-08-18T22:11:54.708Z,18.00
2018-08-18T22:14:24.314Z,18.00
2018-08-18T22:16:57.213Z,18.20
2018-08-18T22:19:28.556Z,18.20
2018-08-18T22:21:58.269Z,18.10
2018-08-18T22:24:27.968Z,18.10
2018-08-18T22:26:57.630Z,18.10
2018-08-18T22:29:27.604Z,18.20
2018-08-18T22:31:57.208Z,18.10
2018-08-18T22:34:26.693Z,18.10
2018-08-18T22:37:08.923Z,18.10
2018-08-18T22:39:38.704Z,18.10
2018-08-18T22:42:08.494Z,18.00
2018-08-18T22:44:38.196Z,18.20
2018-08-18T22:47:08.058Z,18.20
2018-08-18T22:49:37.857Z,18.20
2018-08-18T22:52:07.647Z,18.20
2018-08-18T22:54:37.275Z,18.30
2018-08-18T22:57:06.921Z,18.20
2018-08-18T22:59:36.457Z,18.20
2018-08-18T23:02:06.395Z,18.10
2018-08-18T23:04:37.865Z,18.10
2018-08-18T23:07:08.872Z,18.10
2018-08-18T23:09:38.648Z,18.00
2018-08-18T23:12:08.997Z,18.00
2018-08-18T23:14:39.685Z,18.00
2018-08-18T23:17:11.359Z,18.00
2018-08-18T23:19:40.997Z,18.00
2018-08-18T23:22:25.929Z,18.00
2018-08-18T23:24:55.609Z,18.00
2018-08-18T23:27:25.260Z,17.90
2018-08-18T23:29:54.814Z,17.90
2018-08-18T23:32:24.540Z,17.80
2018-08-18T23:34:56.605Z,17.80
2018-08-18T23:37:26.200Z,17.80
2018-08-18T23:39:57.023Z,17.70
2018-08-18T23:42:27.409Z,17.60
2018-08-18T23:44:56.990Z,17.50
2018-08-18T23:47:26.785Z,17.50
2018-08-18T23:49:56.489Z,17.50
2018-08-18T23:52:26.101Z,17.50
2018-08-18T23:54:55.820Z,17.40
2018-08-18T23:57:25.648Z,17.40
2018-08-18T23:59:55.172Z,17.30
